Time;durP1;ratioP1;P1;durP2;ratioP2;P2;SDS_P1;SDS_P2;PMS_P1;PMS_P2;Temp;Humidity;BMP_temperature;BMP_pressure;BME280_temperature;BME280_humidity;BME280_pressure;Samples;Min_cycle;Max_cycle;Signal;HPM_P1;HPM_P2
2022/01/04 00:00:07;;;;;;;5.20;2.65;;;11.40;99.90;;;;;;4979517;28;20403;-83
2022/01/04 00:02:33;;;;;;;6.70;2.65;;;11.40;99.90;;;;;;4973751;28;20035;-83
2022/01/04 00:04:59;;;;;;;7.10;2.65;;;11.50;99.90;;;;;;4974739;28;20549;-80
2022/01/04 00:07:24;;;;;;;4.00;2.47;;;12.10;99.90;;;;;;4975005;28;20412;-84
2022/01/04 00:09:52;;;;;;;4.57;2.50;;;11.40;99.90;;;;;;4972687;28;20641;-85
2022/01/04 00:15:02;;;;;;;6.88;3.40;;;11.40;99.90;;;;;;4986951;28;20049;-82
2022/01/04 00:17:28;;;;;;;4.35;2.47;;;11.40;99.90;;;;;;4971435;28;20035;-84
2022/01/04 00:19:54;;;;;;;4.68;2.60;;;11.50;99.90;;;;;;4969943;28;20117;-83
2022/01/04 00:22:20;;;;;;;8.75;2.97;;;11.50;99.90;;;;;;4981695;28;20088;-82
2022/01/04 00:24:45;;;;;;;4.97;3.28;;;12.80;99.90;;;;;;4988568;28;20030;-84
2022/01/04 00:27:11;;;;;;;5.50;3.08;;;11.40;99.90;;;;;;4992634;28;20117;-83
2022/01/04 00:29:37;;;;;;;5.97;3.30;;;11.40;99.90;;;;;;4987342;28;20053;-83
2022/01/04 00:32:03;;;;;;;5.90;3.60;;;11.40;99.90;;;;;;4982634;28;20483;-78
2022/01/04 00:34:29;;;;;;;7.38;3.67;;;;;;;;;;5013559;28;20058;-81
2022/01/04 00:36:54;;;;;;;4.90;3.33;;;11.40;99.90;;;;;;4986281;28;20049;-85
2022/01/04 00:39:20;;;;;;;4.93;3.35;;;11.40;99.90;;;;;;4983766;28;20511;-77
2022/01/04 00:41:46;;;;;;;4.90;3.53;;;;;;;;;;4980995;28;20076;-85
2022/01/04 00:44:13;;;;;;;5.95;3.78;;;11.40;99.90;;;;;;4987063;28;20307;-81
2022/01/04 00:46:39;;;;;;;6.38;3.13;;;11.40;99.90;;;;;;4983955;28;20122;-81
2022/01/04 00:49:10;;;;;;;6.57;3.35;;;11.30;99.90;;;;;;4991369;28;20119;-82
2022/01/04 00:51:44;;;;;;;5.82;3.65;;;11.20;99.90;;;;;;4991963;28;20508;-83
2022/01/04 00:54:11;;;;;;;7.22;3.95;;;11.30;99.90;;;;;;4989766;28;20421;-84
2022/01/04 00:56:37;;;;;;;8.07;3.55;;;11.30;99.90;;;;;;4987077;28;20050;-82
2022/01/04 00:59:03;;;;;;;7.15;3.40;;;11.30;99.90;;;;;;4988575;28;20060;-83
2022/01/04 01:01:29;;;;;;;5.90;3.50;;;12.20;99.90;;;;;;5005620;28;20032;-82
2022/01/04 01:03:55;;;;;;;6.93;3.92;;;12.20;99.90;;;;;;4986618;28;20156;-80
2022/01/04 01:06:21;;;;;;;8.00;4.25;;;11.20;99.90;;;;;;4989999;28;20056;-83
2022/01/04 01:08:47;;;;;;;6.13;3.45;;;11.20;99.90;;;;;;4987236;28;20031;-78
2022/01/04 01:11:13;;;;;;;5.55;3.22;;;12.70;99.90;;;;;;4988629;28;20041;-82
2022/01/04 01:13:39;;;;;;;5.53;3.33;;;12.80;99.90;;;;;;4981672;28;20027;-82
2022/01/04 01:16:06;;;;;;;4.45;2.95;;;11.10;99.90;;;;;;4984268;28;20022;-80
2022/01/04 01:18:31;;;;;;;5.85;3.13;;;11.10;99.90;;;;;;4984311;28;20113;-81
2022/01/04 01:20:57;;;;;;;7.10;3.85;;;11.00;99.90;;;;;;4984332;28;20100;-83
2022/01/04 01:23:23;;;;;;;9.90;4.13;;;12.90;99.90;;;;;;4988615;28;21467;-82
2022/01/04 01:25:50;;;;;;;5.38;3.33;;;11.10;99.90;;;;;;4982098;28;20030;-79
2022/01/04 01:28:17;;;;;;;7.07;4.10;;;11.00;99.90;;;;;;4982818;28;20488;-81
2022/01/04 01:30:44;;;;;;;5.57;3.70;;;11.00;99.90;;;;;;4977724;28;20092;-84
2022/01/04 01:33:10;;;;;;;7.05;4.13;;;10.90;99.90;;;;;;4978047;28;20027;-82
2022/01/04 01:35:37;;;;;;;6.03;3.90;;;10.80;99.90;;;;;;4991997;28;20028;-85
2022/01/04 01:38:04;;;;;;;9.65;4.32;;;10.70;99.90;;;;;;4983368;28;20044;-82
2022/01/04 01:40:30;;;;;;;7.25;4.18;;;10.70;99.90;;;;;;5000108;28;20059;-83
2022/01/04 01:42:56;;;;;;;6.22;3.85;;;10.70;99.90;;;;;;4988166;28;20065;-81
2022/01/04 01:45:23;;;;;;;6.20;3.97;;;11.40;99.90;;;;;;4984843;28;20030;-81
2022/01/04 01:47:50;;;;;;;5.88;3.83;;;10.70;99.90;;;;;;4990421;28;20432;-83
2022/01/04 01:50:17;;;;;;;8.05;4.43;;;10.70;99.90;;;;;;4974231;28;20555;-81
2022/01/04 01:52:46;;;;;;;6.50;3.95;;;10.60;99.90;;;;;;4981137;28;20058;-82
2022/01/04 01:55:12;;;;;;;6.93;4.07;;;10.50;99.90;;;;;;4982742;28;20054;-80
2022/01/04 01:57:38;;;;;;;7.72;3.70;;;10.30;99.90;;;;;;4980862;28;20023;-81
2022/01/04 02:00:06;;;;;;;8.00;3.63;;;10.70;99.90;;;;;;4985439;28;20039;-79
2022/01/04 02:02:32;;;;;;;6.85;3.85;;;10.70;99.90;;;;;;4981494;28;20492;-82
2022/01/04 02:04:58;;;;;;;6.10;3.58;;;10.70;99.90;;;;;;4979968;28;20030;-82
2022/01/04 02:07:24;;;;;;;5.47;3.78;;;10.60;99.90;;;;;;4971230;28;20027;-81
2022/01/04 02:10:02;;;;;;;5.47;3.35;;;;;;;;;;4969321;28;22899;-80
2022/01/04 02:12:28;;;;;;;9.02;4.15;;;10.70;99.90;;;;;;4979001;28;20776;-82
2022/01/04 02:14:55;;;;;;;7.35;4.05;;;10.80;99.90;;;;;;4989872;28;20027;-81
2022/01/04 02:17:20;;;;;;;10.45;4.75;;;10.80;99.90;;;;;;4979954;28;20035;-84
2022/01/04 02:19:46;;;;;;;6.60;3.65;;;10.80;99.90;;;;;;4981611;28;20035;-84
2022/01/04 02:22:12;;;;;;;9.70;5.18;;;10.90;99.90;;;;;;4986266;28;20030;-82
2022/01/04 02:24:37;;;;;;;6.20;3.78;;;10.80;99.90;;;;;;4982563;28;20064;-81
2022/01/04 02:27:03;;;;;;;6.47;4.18;;;10.80;99.90;;;;;;4980585;28;20034;-77
2022/01/04 02:29:29;;;;;;;5.80;3.30;;;10.70;99.90;;;;;;4985593;28;20045;-79
2022/01/04 02:31:55;;;;;;;5.70;3.17;;;11.40;99.90;;;;;;4993432;28;20023;-81
2022/01/04 02:34:20;;;;;;;4.68;3.22;;;10.60;99.90;;;;;;4986092;28;20034;-79
2022/01/04 02:36:46;;;;;;;5.82;3.55;;;10.60;99.90;;;;;;4984715;28;20654;-80
2022/01/04 02:39:12;;;;;;;7.70;3.90;;;10.50;99.90;;;;;;4972923;28;20031;-79
2022/01/04 02:41:37;;;;;;;6.53;3.90;;;10.60;99.90;;;;;;4983748;28;20110;-84
2022/01/04 02:44:04;;;;;;;5.65;3.80;;;12.30;99.90;;;;;;4978483;28;20403;-82
2022/01/04 02:46:29;;;;;;;5.88;3.70;;;10.50;99.90;;;;;;4988281;28;20057;-81
2022/01/04 02:48:55;;;;;;;5.05;3.30;;;11.30;99.90;;;;;;4984188;28;20038;-85
2022/01/04 02:51:23;;;;;;;7.93;3.80;;;10.70;99.90;;;;;;4975798;28;20027;-82
2022/01/04 02:53:49;;;;;;;5.90;3.70;;;10.50;99.90;;;;;;4981072;28;20041;-85
2022/01/04 02:56:15;;;;;;;6.03;3.75;;;10.60;99.90;;;;;;4985149;28;20026;-85
2022/01/04 02:58:41;;;;;;;5.80;3.55;;;10.60;99.90;;;;;;4979812;28;20031;-81
2022/01/04 03:01:07;;;;;;;7.07;3.72;;;10.60;99.90;;;;;;4985303;28;20146;-79
2022/01/04 03:03:33;;;;;;;5.70;3.40;;;10.60;99.90;;;;;;4977992;28;20027;-79
2022/01/04 03:05:59;;;;;;;5.07;3.60;;;10.60;99.90;;;;;;5002788;28;20079;-82
2022/01/04 03:08:25;;;;;;;5.45;3.58;;;10.50;99.90;;;;;;4984666;28;20493;-82
2022/01/04 03:10:51;;;;;;;7.38;3.80;;;10.60;99.90;;;;;;4978625;28;20065;-84
2022/01/04 03:13:17;;;;;;;4.53;2.90;;;10.40;99.90;;;;;;4989154;28;20076;-84
2022/01/04 03:15:44;;;;;;;4.60;2.90;;;10.50;99.90;;;;;;4991155;28;20035;-81
2022/01/04 03:18:10;;;;;;;5.35;3.10;;;10.50;99.90;;;;;;4986534;28;20110;-84
2022/01/04 03:20:35;;;;;;;6.03;2.90;;;10.50;99.90;;;;;;4992129;28;20051;-83
2022/01/04 03:23:02;;;;;;;5.55;2.92;;;;;;;;;;4977431;28;20034;-82
2022/01/04 03:25:27;;;;;;;5.93;3.83;;;10.50;99.90;;;;;;4977842;28;20084;-81
2022/01/04 03:27:53;;;;;;;4.20;2.90;;;10.60;99.90;;;;;;4985343;28;20038;-83
2022/01/04 03:30:18;;;;;;;6.45;2.88;;;10.50;99.90;;;;;;4998401;28;20035;-82
2022/01/04 03:32:44;;;;;;;4.30;2.80;;;10.60;99.90;;;;;;4989081;28;20023;-80
2022/01/04 03:35:10;;;;;;;5.05;2.72;;;10.50;99.90;;;;;;4983142;28;20033;-81
2022/01/04 03:37:36;;;;;;;4.28;2.60;;;10.40;99.90;;;;;;4994164;28;20024;-85
2022/01/04 03:40:04;;;;;;;4.18;2.30;;;10.40;99.90;;;;;;5003343;28;20027;-82
2022/01/04 03:42:30;;;;;;;5.78;2.70;;;10.40;99.90;;;;;;4992891;28;20024;-80
2022/01/04 03:44:55;;;;;;;3.78;2.67;;;11.40;99.90;;;;;;4977560;28;20718;-83
2022/01/04 03:47:21;;;;;;;7.40;3.08;;;10.50;99.90;;;;;;4990378;28;20041;-84
2022/01/04 03:49:47;;;;;;;5.00;2.80;;;11.00;99.90;;;;;;4979772;28;20060;-83
2022/01/04 03:52:12;;;;;;;4.53;2.67;;;10.50;99.90;;;;;;4987329;28;20062;-85
2022/01/04 03:54:38;;;;;;;10.13;4.13;;;10.50;99.90;;;;;;4985535;28;20023;-83
2022/01/04 03:57:04;;;;;;;4.13;2.75;;;10.60;99.90;;;;;;4988997;28;20077;-83
2022/01/04 03:59:29;;;;;;;4.38;2.50;;;10.50;99.90;;;;;;4999353;28;20045;-83
2022/01/04 04:01:55;;;;;;;4.78;2.88;;;10.50;99.90;;;;;;4993928;28;20034;-83
2022/01/04 04:04:21;;;;;;;4.55;2.58;;;10.50;99.90;;;;;;5005340;28;20117;-84
2022/01/04 04:06:47;;;;;;;3.58;2.30;;;10.50;99.90;;;;;;4986726;28;20513;-82
2022/01/04 04:09:13;;;;;;;5.32;3.17;;;10.50;99.90;;;;;;4988262;28;20030;-82
2022/01/04 04:11:38;;;;;;;4.38;2.70;;;12.60;99.90;;;;;;4982080;28;20023;-85
2022/01/04 04:14:04;;;;;;;4.40;2.40;;;10.70;99.90;;;;;;4988408;28;20480;-86
2022/01/04 04:16:29;;;;;;;4.63;2.20;;;10.60;99.90;;;;;;4987449;28;20042;-83
2022/01/04 04:18:55;;;;;;;4.38;2.47;;;;;;;;;;4994087;28;20023;-79
2022/01/04 04:21:21;;;;;;;3.17;1.80;;;10.60;99.90;;;;;;4981860;28;20531;-84
2022/01/04 04:23:47;;;;;;;4.30;2.22;;;10.60;99.90;;;;;;4995859;28;20056;-82
2022/01/04 04:26:12;;;;;;;3.83;2.15;;;10.60;99.90;;;;;;4987835;28;20030;-83
2022/01/04 04:28:38;;;;;;;5.03;2.25;;;10.50;99.90;;;;;;4981365;28;20037;-84
2022/01/04 04:31:05;;;;;;;2.30;1.52;;;10.50;99.90;;;;;;4983139;28;20054;-79
2022/01/04 04:33:31;;;;;;;4.05;1.77;;;10.80;99.90;;;;;;4987315;28;20020;-84
2022/01/04 04:35:56;;;;;;;3.83;1.67;;;10.50;99.90;;;;;;4994923;28;20034;-78
2022/01/04 04:38:22;;;;;;;4.50;2.10;;;11.10;99.90;;;;;;4982872;28;20018;-80
2022/01/04 04:40:47;;;;;;;2.28;1.70;;;10.50;99.90;;;;;;4990216;28;20031;-83
2022/01/04 04:43:13;;;;;;;4.07;2.08;;;10.50;99.90;;;;;;4977247;28;20065;-81
2022/01/04 04:45:38;;;;;;;2.47;1.52;;;10.50;99.90;;;;;;4981737;28;20540;-81
2022/01/04 04:48:04;;;;;;;2.53;1.50;;;10.50;99.90;;;;;;4981711;28;20102;-80
2022/01/04 04:50:31;;;;;;;2.95;1.50;;;10.50;99.90;;;;;;4982593;28;20031;-81
2022/01/04 04:52:57;;;;;;;2.33;1.30;;;12.10;99.90;;;;;;4984267;28;20029;-80
2022/01/04 04:55:23;;;;;;;2.40;1.55;;;10.60;99.90;;;;;;4985710;28;20023;-79
2022/01/04 04:57:48;;;;;;;2.67;1.80;;;10.60;99.90;;;;;;4991391;28;20038;-81
2022/01/04 05:00:15;;;;;;;1.65;1.30;;;10.60;99.90;;;;;;4983474;28;20121;-83
2022/01/04 05:02:41;;;;;;;1.58;1.20;;;10.60;99.90;;;;;;4972959;28;20046;-79
2022/01/04 05:05:07;;;;;;;1.90;1.25;;;10.60;99.90;;;;;;4983298;28;20039;-80
2022/01/04 05:07:34;;;;;;;3.67;1.38;;;10.60;99.90;;;;;;4986871;28;20374;-84
2022/01/04 05:10:00;;;;;;;2.47;1.40;;;10.70;99.90;;;;;;4980922;28;20088;-83
2022/01/04 05:12:26;;;;;;;3.75;1.40;;;10.70;99.90;;;;;;4977404;28;20432;-79
2022/01/04 05:14:51;;;;;;;2.83;1.65;;;10.70;99.90;;;;;;4979266;28;20058;-84
2022/01/04 05:17:17;;;;;;;2.28;1.58;;;10.70;99.90;;;;;;4987812;28;20074;-82
2022/01/04 05:19:43;;;;;;;2.28;1.48;;;10.80;99.90;;;;;;4986932;28;20030;-80
2022/01/04 05:22:08;;;;;;;2.60;1.65;;;10.70;99.90;;;;;;4984110;28;20038;-84
2022/01/04 05:24:34;;;;;;;2.60;1.50;;;10.70;99.90;;;;;;4978946;28;20030;-83
2022/01/04 05:27:01;;;;;;;2.83;1.50;;;10.80;99.90;;;;;;4977197;28;20051;-81
2022/01/04 05:29:27;;;;;;;2.97;1.88;;;10.70;99.90;;;;;;4974870;28;20030;-82
2022/01/04 05:31:52;;;;;;;2.63;1.75;;;10.70;99.90;;;;;;4983067;28;20027;-80
2022/01/04 05:34:20;;;;;;;2.88;1.67;;;10.70;99.90;;;;;;4989553;28;20031;-77
2022/01/04 05:36:46;;;;;;;2.47;1.70;;;10.70;99.90;;;;;;5002501;28;20022;-80
2022/01/04 05:39:12;;;;;;;3.88;2.20;;;;;;;;;;4981865;28;20073;-80
2022/01/04 05:41:37;;;;;;;4.05;1.83;;;10.90;99.90;;;;;;4976310;28;20125;-82
2022/01/04 05:44:03;;;;;;;4.18;2.20;;;;;;;;;;4978868;28;20039;-81
2022/01/04 05:46:29;;;;;;;3.47;1.95;;;;;;;;;;4978300;28;20041;-84
2022/01/04 05:48:55;;;;;;;3.22;2.17;;;10.90;99.90;;;;;;4987908;28;20031;-82
2022/01/04 05:51:21;;;;;;;4.30;2.10;;;10.90;99.90;;;;;;4979230;28;20578;-81
2022/01/04 05:53:46;;;;;;;3.88;2.22;;;10.90;99.90;;;;;;4977717;28;20034;-85
2022/01/04 05:56:12;;;;;;;4.07;2.20;;;10.90;99.90;;;;;;4982050;28;20019;-76
2022/01/04 05:58:37;;;;;;;4.35;1.98;;;10.80;99.90;;;;;;4971257;28;20029;-83
2022/01/04 06:01:03;;;;;;;3.10;2.00;;;;;;;;;;4965237;28;20038;-76
2022/01/04 06:03:29;;;;;;;4.20;2.30;;;10.90;99.90;;;;;;4982776;28;20115;-82
2022/01/04 06:05:56;;;;;;;3.88;2.33;;;;;;;;;;4969031;28;20615;-78
2022/01/04 06:08:22;;;;;;;4.50;2.63;;;10.80;99.90;;;;;;4964205;28;20125;-84
2022/01/04 06:10:51;;;;;;;4.38;2.15;;;10.70;99.90;;;;;;4975063;28;20026;-80
2022/01/04 06:16:22;;;;;;;3.42;1.90;;;12.20;99.90;;;;;;4956989;28;20045;-82
2022/01/04 06:18:47;;;;;;;4.88;2.00;;;10.70;99.90;;;;;;4957808;28;20082;-83
2022/01/04 06:21:13;;;;;;;3.40;2.03;;;10.70;99.90;;;;;;4968982;28;20047;-82
2022/01/04 06:23:38;;;;;;;4.13;2.17;;;10.70;99.90;;;;;;4979421;28;20023;-81
2022/01/04 06:26:05;;;;;;;3.40;2.15;;;10.80;99.90;;;;;;4977029;28;20046;-85
2022/01/04 06:28:31;;;;;;;4.20;2.05;;;10.80;99.90;;;;;;4976182;28;20031;-83
2022/01/04 06:30:57;;;;;;;3.58;2.10;;;10.80;99.90;;;;;;4981175;28;20038;-85
2022/01/04 06:33:23;;;;;;;3.35;2.00;;;10.80;99.90;;;;;;4973907;28;20019;-84
2022/01/04 06:35:49;;;;;;;3.58;2.30;;;11.90;99.90;;;;;;4974256;28;20035;-84
2022/01/04 06:38:15;;;;;;;6.32;2.00;;;10.80;99.90;;;;;;4977516;28;20031;-82
2022/01/04 06:40:41;;;;;;;3.83;2.38;;;10.90;99.90;;;;;;4981294;28;20070;-82
2022/01/04 06:43:07;;;;;;;3.15;2.22;;;10.80;99.90;;;;;;4996531;28;20037;-87
2022/01/04 06:45:33;;;;;;;3.05;1.80;;;10.80;99.90;;;;;;4992542;28;20135;-84
2022/01/04 06:47:58;;;;;;;4.85;2.92;;;10.80;99.90;;;;;;4974043;28;20030;-84
2022/01/04 06:50:24;;;;;;;3.85;2.08;;;10.80;99.90;;;;;;4980124;28;20029;-83
2022/01/04 06:52:50;;;;;;;3.05;2.20;;;10.90;99.90;;;;;;4982040;28;20046;-83
2022/01/04 06:55:16;;;;;;;3.10;1.95;;;10.90;99.90;;;;;;4984549;28;20031;-80
2022/01/04 06:57:42;;;;;;;4.28;2.40;;;10.80;99.90;;;;;;4973765;28;20030;-75
2022/01/04 07:00:09;;;;;;;3.72;2.22;;;12.60;99.90;;;;;;4969951;28;20034;-82
2022/01/04 07:02:35;;;;;;;3.72;2.38;;;10.90;99.90;;;;;;4977594;28;20038;-82
2022/01/04 07:05:01;;;;;;;3.92;2.33;;;10.90;99.90;;;;;;4974018;28;20030;-81
2022/01/04 07:07:26;;;;;;;4.18;2.22;;;11.00;99.90;;;;;;4979110;28;20022;-84
2022/01/04 07:09:52;;;;;;;3.67;2.10;;;11.10;99.90;;;;;;4971113;28;20113;-82
2022/01/04 07:12:17;;;;;;;3.97;2.25;;;11.00;99.90;;;;;;4977492;28;20090;-83
2022/01/04 07:14:43;;;;;;;2.95;2.20;;;11.00;99.90;;;;;;4977496;28;20403;-80
2022/01/04 07:17:08;;;;;;;3.72;2.25;;;11.80;99.90;;;;;;4972724;28;20037;-83
2022/01/04 07:19:34;;;;;;;5.72;2.20;;;12.40;99.90;;;;;;4976722;28;20112;-81
2022/01/04 07:22:00;;;;;;;4.80;2.38;;;10.90;99.90;;;;;;4971999;28;20088;-82
2022/01/04 07:24:26;;;;;;;3.65;2.22;;;;;;;;;;4976444;28;20058;-81
2022/01/04 07:26:51;;;;;;;4.78;2.47;;;10.90;99.90;;;;;;4976958;28;20439;-84
2022/01/04 07:29:17;;;;;;;4.43;2.35;;;10.90;99.90;;;;;;4972744;28;20029;-84
2022/01/04 07:31:43;;;;;;;3.40;2.28;;;;;;;;;;4990266;28;20028;-81
2022/01/04 07:34:09;;;;;;;3.50;2.00;;;10.90;99.90;;;;;;4976405;28;20536;-82
2022/01/04 07:36:35;;;;;;;4.50;2.08;;;10.90;99.90;;;;;;4980488;28;20150;-84
2022/01/04 07:39:00;;;;;;;4.25;2.65;;;10.90;99.90;;;;;;4966130;28;20045;-85
2022/01/04 07:41:26;;;;;;;3.22;2.17;;;10.90;99.90;;;;;;4969261;28;20081;-84
2022/01/04 07:43:52;;;;;;;6.80;2.08;;;11.40;99.90;;;;;;4975518;28;20026;-82
2022/01/04 07:46:19;;;;;;;3.92;2.05;;;10.90;99.90;;;;;;4974543;28;20038;-86
2022/01/04 07:48:45;;;;;;;2.53;1.83;;;10.90;99.90;;;;;;4972564;28;20057;-85
2022/01/04 07:51:11;;;;;;;3.08;1.77;;;10.90;99.90;;;;;;4980741;28;20047;-83
2022/01/04 07:53:37;;;;;;;3.63;1.77;;;11.10;99.90;;;;;;4978589;28;20122;-85
2022/01/04 07:56:06;;;;;;;4.30;1.67;;;10.90;99.90;;;;;;4971124;28;20118;-82
2022/01/04 07:58:40;;;;;;;3.42;1.83;;;11.00;99.90;;;;;;4978076;28;20030;-84
2022/01/04 08:01:06;;;;;;;2.88;1.50;;;;;;;;;;4976969;28;20061;-83
2022/01/04 08:03:32;;;;;;;3.47;1.70;;;;;;;;;;4985614;28;20062;-83
2022/01/04 08:05:58;;;;;;;3.28;1.80;;;11.10;99.90;;;;;;4977378;28;20081;-78
2022/01/04 08:08:24;;;;;;;4.88;2.13;;;;;;;;;;4993792;28;20308;-83
2022/01/04 08:10:51;;;;;;;3.30;2.17;;;11.10;99.90;;;;;;4982472;28;20060;-80
2022/01/04 08:13:17;;;;;;;5.28;1.90;;;;;;;;;;4979132;28;20760;-79
2022/01/04 08:15:43;;;;;;;2.97;1.70;;;;;;;;;;4989434;28;20522;-78
2022/01/04 08:18:09;;;;;;;3.30;1.63;;;11.10;99.90;;;;;;4976037;28;20034;-78
2022/01/04 08:20:35;;;;;;;3.35;1.83;;;13.50;99.90;;;;;;4970639;28;20029;-79
2022/01/04 08:23:02;;;;;;;3.13;1.85;;;11.10;99.90;;;;;;4979810;28;20391;-82
2022/01/04 08:25:27;;;;;;;2.90;1.73;;;12.30;99.90;;;;;;4980635;28;20035;-79
2022/01/04 08:27:53;;;;;;;2.30;1.50;;;11.30;99.90;;;;;;4995220;28;20039;-79
2022/01/04 08:30:19;;;;;;;3.67;1.70;;;11.30;99.90;;;;;;4985177;28;20124;-80
2022/01/04 08:32:45;;;;;;;3.95;2.00;;;;;;;;;;4995973;28;20106;-81
2022/01/04 08:35:11;;;;;;;3.75;1.70;;;11.40;99.90;;;;;;4981546;28;20034;-80
2022/01/04 08:37:37;;;;;;;3.75;1.98;;;11.40;99.90;;;;;;4975510;28;20052;-80
2022/01/04 08:40:05;;;;;;;3.45;1.75;;;12.10;99.90;;;;;;4972263;28;20691;-80
2022/01/04 08:42:31;;;;;;;4.63;2.63;;;11.30;99.90;;;;;;4976769;28;20430;-78
2022/01/04 08:44:57;;;;;;;4.90;2.22;;;11.30;99.90;;;;;;4985152;28;20118;-82
2022/01/04 08:47:25;;;;;;;3.47;2.03;;;11.40;99.90;;;;;;4980455;28;20055;-81
2022/01/04 08:49:51;;;;;;;4.35;2.67;;;;;;;;;;4979740;28;20110;-81
2022/01/04 08:52:17;;;;;;;3.55;1.92;;;11.30;99.90;;;;;;4995200;28;20061;-81
2022/01/04 08:54:42;;;;;;;3.65;2.10;;;10.80;99.90;;;;;;4993002;28;20031;-79
2022/01/04 08:57:08;;;;;;;4.78;2.35;;;11.40;99.90;;;;;;4980836;28;20034;-77
2022/01/04 08:59:34;;;;;;;4.35;2.20;;;11.60;99.90;;;;;;4978917;28;20227;-83
2022/01/04 09:01:59;;;;;;;5.47;2.38;;;11.40;99.90;;;;;;4981548;28;20045;-82
2022/01/04 09:04:25;;;;;;;3.72;2.67;;;11.40;99.90;;;;;;4989585;28;20058;-82
2022/01/04 09:06:51;;;;;;;5.50;2.30;;;11.40;99.90;;;;;;4974589;28;20039;-81
2022/01/04 09:09:17;;;;;;;3.47;2.28;;;11.60;99.90;;;;;;4980861;28;20070;-84
2022/01/04 09:11:44;;;;;;;4.55;2.08;;;11.50;99.90;;;;;;4979780;28;20118;-81
2022/01/04 09:19:26;;;;;;;3.10;2.20;;;11.40;99.90;;;;;;4976663;28;20450;-75
2022/01/04 09:21:53;;;;;;;4.82;2.30;;;11.40;99.90;;;;;;4982200;28;20034;-79
2022/01/04 09:24:18;;;;;;;4.38;1.98;;;11.40;99.90;;;;;;5009835;28;20064;-85
2022/01/04 09:26:44;;;;;;;3.90;2.13;;;11.50;99.90;;;;;;4977944;28;20022;-80
2022/01/04 09:29:10;;;;;;;4.35;2.20;;;;;;;;;;4976513;28;20038;-81
2022/01/04 09:31:35;;;;;;;6.85;2.97;;;11.60;99.90;;;;;;4981841;28;20018;-79
2022/01/04 09:34:02;;;;;;;4.47;2.20;;;11.50;99.90;;;;;;4979382;28;20509;-83
2022/01/04 09:36:40;;;;;;;4.85;2.65;;;13.00;99.90;;;;;;4983831;28;20051;-81
2022/01/04 09:39:25;;;;;;;4.80;2.15;;;11.50;99.90;;;;;;4977631;28;20030;-80
2022/01/04 09:41:55;;;;;;;3.72;2.03;;;11.60;99.90;;;;;;4978408;28;20039;-81
2022/01/04 09:44:22;;;;;;;3.38;2.03;;;11.60;99.90;;;;;;4979241;28;20035;-79
2022/01/04 09:46:48;;;;;;;4.93;2.10;;;11.40;99.90;;;;;;4977440;28;20031;-82
2022/01/04 09:49:16;;;;;;;4.70;2.03;;;11.60;99.90;;;;;;4982692;28;20038;-82
2022/01/04 09:51:43;;;;;;;4.10;2.05;;;11.60;99.90;;;;;;4987024;28;20019;-82
2022/01/04 09:54:09;;;;;;;4.22;2.05;;;11.60;99.90;;;;;;4975468;28;20376;-78
2022/01/04 09:56:35;;;;;;;5.50;1.95;;;11.90;99.90;;;;;;4973283;28;20030;-79
2022/01/04 09:59:00;;;;;;;2.78;1.58;;;11.50;99.90;;;;;;4970687;28;20031;-81
2022/01/04 10:01:34;;;;;;;4.55;2.00;;;11.50;99.90;;;;;;4974276;28;20035;-82
2022/01/04 10:04:00;;;;;;;7.78;2.28;;;11.50;99.90;;;;;;4984375;28;20041;-81
2022/01/04 10:06:26;;;;;;;4.13;2.03;;;11.50;99.90;;;;;;4981467;28;20472;-81
2022/01/04 10:08:57;;;;;;;4.00;1.90;;;11.50;99.90;;;;;;4975377;28;20033;-79
2022/01/04 10:11:47;;;;;;;3.95;2.30;;;11.40;99.90;;;;;;4975574;28;20541;-83
2022/01/04 10:14:24;;;;;;;2.78;1.70;;;11.40;99.90;;;;;;4968330;28;20433;-80
2022/01/04 10:16:51;;;;;;;2.45;1.25;;;11.40;99.90;;;;;;4971584;28;20106;-80
2022/01/04 10:19:35;;;;;;;3.28;1.23;;;11.40;99.90;;;;;;4978616;28;20046;-81
2022/01/04 10:22:11;;;;;;;1.40;0.77;;;11.20;99.90;;;;;;4986597;28;20022;-80
2022/01/04 10:24:38;;;;;;;1.17;0.68;;;11.20;99.90;;;;;;4980206;28;20022;-81
2022/01/04 10:27:31;;;;;;;2.10;1.20;;;11.10;99.90;;;;;;4980370;28;20388;-81
2022/01/04 10:30:23;;;;;;;1.52;0.50;;;11.00;99.90;;;;;;4976341;28;20037;-80
2022/01/04 10:32:59;;;;;;;1.35;0.80;;;10.80;99.90;;;;;;4976026;28;20029;-81
2022/01/04 10:35:42;;;;;;;1.00;0.50;;;10.70;99.90;;;;;;4983558;28;20023;-82
2022/01/04 10:38:13;;;;;;;1.70;0.60;;;10.60;99.90;;;;;;4976920;28;20031;-78
2022/01/04 10:40:39;;;;;;;;;;;10.50;99.90;;;;;;4975104;28;20116;-82
2022/01/04 10:43:15;;;;;;;1.13;0.60;;;11.60;99.90;;;;;;4985642;28;19910;-80
2022/01/04 10:45:44;;;;;;;1.35;0.70;;;10.20;99.90;;;;;;4974170;28;20042;-80
2022/01/04 10:48:27;;;;;;;1.27;0.87;;;10.30;99.90;;;;;;4982393;28;20038;-83
2022/01/04 10:51:08;;;;;;;3.17;1.25;;;10.10;99.90;;;;;;4974142;28;20294;-82
2022/01/04 10:53:48;;;;;;;3.47;0.90;;;10.00;99.90;;;;;;4978525;28;20114;-79
2022/01/04 10:56:24;;;;;;;1.70;0.60;;;10.00;99.90;;;;;;4974171;28;20022;-81
2022/01/04 10:58:51;;;;;;;2.08;0.70;;;9.80;99.90;;;;;;4978549;28;20023;-82
2022/01/04 11:01:19;;;;;;;1.90;0.70;;;9.80;99.90;;;;;;4976815;28;20036;-81
2022/01/04 11:03:52;;;;;;;0.88;0.60;;;9.80;99.90;;;;;;4969948;28;20297;-75
2022/01/04 11:06:25;;;;;;;1.63;0.80;;;9.80;99.90;;;;;;4978032;28;20405;-78
2022/01/04 11:08:51;;;;;;;2.38;0.60;;;10.40;99.90;;;;;;4976010;28;20031;-81
2022/01/04 11:11:17;;;;;;;2.88;1.33;;;;;;;;;;4979545;28;20026;-79
2022/01/04 11:13:43;;;;;;;3.13;0.80;;;9.70;99.90;;;;;;4976262;28;20030;-78
2022/01/04 11:16:09;;;;;;;1.27;0.60;;;9.50;99.90;;;;;;4974849;28;20031;-77
2022/01/04 11:18:40;;;;;;;0.93;0.60;;;9.40;99.90;;;;;;4995434;28;20018;-79
2022/01/04 11:21:11;;;;;;;1.33;0.47;;;9.40;99.90;;;;;;4978305;28;20039;-81
2022/01/04 11:23:37;;;;;;;0.60;0.45;;;9.30;99.90;;;;;;4974287;28;20106;-81
2022/01/04 11:26:04;;;;;;;1.33;0.50;;;9.30;99.90;;;;;;4983036;28;20053;-80
2022/01/04 11:28:30;;;;;;;2.15;0.68;;;9.30;99.90;;;;;;4980159;28;20040;-79
2022/01/04 11:31:25;;;;;;;1.13;0.70;;;9.30;99.90;;;;;;4982149;28;20043;-80
2022/01/04 11:33:56;;;;;;;0.95;0.70;;;9.20;99.90;;;;;;4972308;28;20057;-79
2022/01/04 11:36:24;;;;;;;7.00;1.88;;;9.20;99.90;;;;;;4986243;28;20054;-80
2022/01/04 11:38:50;;;;;;;2.05;1.05;;;9.20;99.90;;;;;;4969881;28;20563;-80
2022/01/04 11:41:25;;;;;;;0.75;0.68;;;9.20;99.90;;;;;;4970282;28;20033;-82
2022/01/04 11:43:51;;;;;;;0.68;0.40;;;9.20;99.90;;;;;;4974688;28;20061;-81
2022/01/04 11:46:36;;;;;;;0.88;0.55;;;9.10;99.90;;;;;;4979639;28;20062;-81
2022/01/04 11:49:13;;;;;;;0.75;0.60;;;9.10;99.90;;;;;;4978447;28;20027;-83
2022/01/04 11:51:45;;;;;;;2.22;0.70;;;11.60;99.90;;;;;;4977146;28;20527;-81
2022/01/04 11:54:14;;;;;;;0.90;0.70;;;9.10;99.90;;;;;;4977119;28;20026;-79
2022/01/04 11:56:57;;;;;;;0.65;0.50;;;9.10;99.90;;;;;;4978606;28;20484;-80
2022/01/04 11:59:37;;;;;;;2.35;0.65;;;9.10;99.90;;;;;;4986729;28;20090;-80
2022/01/04 12:02:26;;;;;;;1.20;0.60;;;9.00;99.90;;;;;;4980319;28;20058;-80
2022/01/04 12:05:21;;;;;;;1.58;0.65;;;9.00;99.90;;;;;;4975365;28;20064;-80
2022/01/04 12:07:49;;;;;;;1.48;0.70;;;9.00;99.90;;;;;;4972694;28;20366;-80
2022/01/04 12:10:20;;;;;;;1.60;0.80;;;9.00;99.90;;;;;;4975479;28;20118;-80
2022/01/04 12:13:14;;;;;;;1.70;0.85;;;9.00;99.90;;;;;;4972324;28;20031;-75
2022/01/04 12:15:48;;;;;;;1.40;0.68;;;9.00;99.90;;;;;;4975806;28;20035;-79
2022/01/04 12:18:23;;;;;;;1.73;0.95;;;9.00;99.90;;;;;;4974450;28;20171;-79
2022/01/04 12:20:54;;;;;;;1.67;0.90;;;9.00;99.90;;;;;;4979395;28;20030;-80
2022/01/04 12:23:23;;;;;;;2.70;1.02;;;8.90;99.90;;;;;;4980051;28;20031;-80
2022/01/04 12:26:13;;;;;;;2.80;0.80;;;8.90;99.90;;;;;;4989290;28;20176;-79
2022/01/04 12:29:05;;;;;;;1.95;0.85;;;9.00;99.90;;;;;;4996517;28;20038;-80
2022/01/04 12:31:33;;;;;;;1.58;0.77;;;8.90;99.90;;;;;;4986494;28;20137;-80
2022/01/04 12:34:24;;;;;;;1.85;0.80;;;9.00;99.90;;;;;;4982626;28;20080;-81
2022/01/04 12:36:50;;;;;;;2.22;0.80;;;9.00;99.90;;;;;;4980647;28;20391;-78
2022/01/04 12:39:22;;;;;;;2.50;1.08;;;9.00;99.90;;;;;;4974904;28;20029;-79
2022/01/04 12:41:51;;;;;;;4.38;0.85;;;8.90;99.90;;;;;;4982153;28;20468;-80
2022/01/04 12:44:28;;;;;;;2.95;1.30;;;8.90;99.90;;;;;;4976030;28;20027;-79
2022/01/04 12:46:54;;;;;;;2.47;0.93;;;8.90;99.90;;;;;;4978601;28;20027;-80
2022/01/04 12:49:23;;;;;;;2.47;1.40;;;8.80;99.90;;;;;;4983049;28;20486;-79
2022/01/04 12:51:52;;;;;;;3.13;1.67;;;10.40;99.90;;;;;;4975353;28;20497;-83
2022/01/04 12:54:20;;;;;;;1.63;1.00;;;8.80;99.90;;;;;;4996288;28;20022;-79
2022/01/04 12:56:56;;;;;;;2.47;1.00;;;8.90;99.90;;;;;;4976079;28;20427;-78
2022/01/04 12:59:48;;;;;;;1.63;0.88;;;8.80;99.90;;;;;;4989914;28;20034;-80
2022/01/04 13:02:24;;;;;;;1.92;0.93;;;8.80;99.90;;;;;;4984435;28;20023;-81
2022/01/04 13:04:54;;;;;;;1.98;1.10;;;8.80;99.90;;;;;;4973447;28;20035;-79
2022/01/04 13:07:21;;;;;;;1.63;1.00;;;8.90;99.90;;;;;;4984355;28;20579;-78
2022/01/04 13:09:49;;;;;;;2.60;0.80;;;8.90;99.90;;;;;;4974823;28;20445;-79